Time;durP1;ratioP1;P1;durP2;ratioP2;P2;SDS_P1;SDS_P2;PMS_P1;PMS_P2;Temp;Humidity;BMP_temperature;BMP_pressure;BME280_temperature;BME280_humidity;BME280_pressure;Samples;Min_cycle;Max_cycle;Signal;HPM_P1;HPM_P2
2022/09/22 00:02:44;;;;;;;2.70;2.30;;;;;;;;;;10143766;28;20119;-52
2022/09/22 00:07:38;;;;;;;1.80;1.35;;;;;;;;;;10137770;28;20063;-51
2022/09/22 00:12:34;;;;;;;3.50;1.42;;;;;;;;;;10145564;28;20059;-52
2022/09/22 00:17:30;;;;;;;2.40;1.50;;;;;;;;;;10133961;28;20095;-52
2022/09/22 00:22:24;;;;;;;4.43;2.15;;;;;;;;;;10135048;28;20049;-50
2022/09/22 00:27:18;;;;;;;3.92;2.13;;;;;;;;;;10131764;28;20537;-55
2022/09/22 00:32:13;;;;;;;4.28;1.63;;;;;;;;;;10150317;28;20384;-53
2022/09/22 00:37:06;;;;;;;2.13;1.35;;;;;;;;;;10152490;28;20044;-50
2022/09/22 00:42:00;;;;;;;2.92;1.60;;;;;;;;;;10152855;28;20055;-51
2022/09/22 00:47:11;;;;;;;1.85;1.58;;;;;;;;;;10153069;28;20060;-50
2022/09/22 00:52:05;;;;;;;2.38;1.95;;;;;;;;;;10152415;28;20114;-51
2022/09/22 00:57:10;;;;;;;3.50;1.67;;;;;;;;;;10151271;28;20506;-50
2022/09/22 01:02:04;;;;;;;2.80;1.50;;;;;;;;;;10151461;28;20045;-51
2022/09/22 01:06:57;;;;;;;3.47;1.88;;;;;;;;;;10151993;28;20052;-52
2022/09/22 01:11:51;;;;;;;3.85;2.08;;;;;;;;;;10152211;28;20057;-51
2022/09/22 01:17:08;;;;;;;3.08;1.67;;;;;;;;;;10130483;28;20052;-52
2022/09/22 01:22:11;;;;;;;2.55;1.80;;;;;;;;;;10131134;28;20593;-49
2022/09/22 01:27:21;;;;;;;1.75;1.45;;;;;;;;;;10155384;28;20059;-48
2022/09/22 01:32:30;;;;;;;2.50;1.67;;;;;;;;;;10164751;28;20079;-51
2022/09/22 01:37:26;;;;;;;;;;;;;;;;;;10181606;28;20040;-51
2022/09/22 01:42:22;;;;;;;1.63;1.30;;;;;;;;;;10188479;28;19927;-52
2022/09/22 01:47:20;;;;;;;2.78;1.33;;;;;;;;;;10167394;28;20479;-50
2022/09/22 01:52:20;;;;;;;2.30;1.00;;;;;;;;;;10159489;28;20059;-49
2022/09/22 01:57:19;;;;;;;3.90;1.42;;;;;;;;;;10166881;28;20517;-52
2022/09/22 02:02:21;;;;;;;2.10;1.65;;;;;;;;;;10188693;28;20048;-53
2022/09/22 02:07:21;;;;;;;2.15;1.67;;;;;;;;;;10179139;28;20082;-51
2022/09/22 02:12:22;;;;;;;1.90;1.20;;;;;;;;;;10180999;28;20072;-51
2022/09/22 02:17:15;;;;;;;2.03;1.42;;;;;;;;;;10183389;28;20064;-51
2022/09/22 02:22:10;;;;;;;1.27;1.17;;;;;;;;;;10167705;28;20044;-53
2022/09/22 02:27:10;;;;;;;1.92;1.33;;;;;;;;;;10167636;28;20070;-51
2022/09/22 02:32:06;;;;;;;1.38;1.27;;;;;;;;;;10166132;28;20479;-52
2022/09/22 02:36:59;;;;;;;3.33;1.45;;;;;;;;;;10160994;28;20043;-51
2022/09/22 02:42:09;;;;;;;3.88;1.50;;;;;;;;;;10182129;28;20048;-52
2022/09/22 02:47:16;;;;;;;5.32;2.55;;;;;;;;;;10166920;28;20044;-53
2022/09/22 02:52:13;;;;;;;2.38;2.13;;;;;;;;;;10164748;28;20105;-50
2022/09/22 02:57:09;;;;;;;3.83;2.08;;;;;;;;;;10188007;28;20490;-53
2022/09/22 03:02:06;;;;;;;5.32;2.35;;;;;;;;;;10162582;28;20127;-50
2022/09/22 03:07:03;;;;;;;2.93;1.97;;;;;;;;;;10166212;28;21012;-55
2022/09/22 03:11:56;;;;;;;4.10;2.00;;;;;;;;;;10159276;28;20044;-51
2022/09/22 03:16:51;;;;;;;2.28;1.67;;;;;;;;;;10177635;28;20449;-52
2022/09/22 03:21:45;;;;;;;2.13;1.95;;;;;;;;;;10180209;28;20060;-55
2022/09/22 03:26:39;;;;;;;1.92;1.83;;;;;;;;;;10163570;28;20044;-53
2022/09/22 03:31:32;;;;;;;7.32;2.10;;;;;;;;;;10172917;28;20389;-53
2022/09/22 03:36:25;;;;;;;2.42;2.05;;;;;;;;;;10164346;28;20548;-53
2022/09/22 03:41:18;;;;;;;2.65;2.45;;;;;;;;;;10161086;28;20044;-53
2022/09/22 03:46:13;;;;;;;3.47;2.67;;;;;;;;;;10180942;28;20047;-55
2022/09/22 03:51:06;;;;;;;3.53;3.22;;;;;;;;;;10186333;28;20048;-55
2022/09/22 03:56:10;;;;;;;3.35;2.60;;;;;;;;;;10176943;28;20059;-53
2022/09/22 04:01:06;;;;;;;4.22;2.90;;;;;;;;;;10179877;28;20139;-53
2022/09/22 04:06:00;;;;;;;4.22;2.97;;;;;;;;;;10173198;28;20048;-54
2022/09/22 04:10:56;;;;;;;4.15;3.17;;;;;;;;;;10194427;28;20076;-54
2022/09/22 04:15:49;;;;;;;5.20;3.38;;;;;;;;;;10183023;28;20072;-55
2022/09/22 04:20:44;;;;;;;4.10;3.58;;;;;;;;;;10171652;28;20068;-52
2022/09/22 04:25:37;;;;;;;7.32;3.50;;;;;;;;;;10165436;28;20051;-51
2022/09/22 04:30:31;;;;;;;8.20;3.17;;;;;;;;;;10171495;28;20057;-54
2022/09/22 04:35:27;;;;;;;4.53;3.38;;;;;;;;;;10174183;28;20105;-54
2022/09/22 04:40:23;;;;;;;4.47;3.77;;;;;;;;;;10174800;28;20066;-53
2022/09/22 04:45:17;;;;;;;3.33;3.03;;;;;;;;;;10169860;28;20090;-53
2022/09/22 04:50:11;;;;;;;6.05;4.13;;;;;;;;;;10173400;28;20048;-53
2022/09/22 04:55:08;;;;;;;8.65;3.97;;;;;;;;;;10172479;28;20072;-51
2022/09/22 05:00:02;;;;;;;7.55;4.57;;;;;;;;;;10151922;28;20064;-54
2022/09/22 05:04:56;;;;;;;3.65;2.90;;;;;;;;;;10184284;28;20048;-54
2022/09/22 05:09:50;;;;;;;5.57;3.08;;;;;;;;;;10176530;28;20058;-53
2022/09/22 05:14:43;;;;;;;6.57;3.15;;;;;;;;;;10183168;28;20059;-54
2022/09/22 05:19:37;;;;;;;3.83;3.20;;;;;;;;;;10179320;28;20059;-52
2022/09/22 05:24:32;;;;;;;7.07;3.70;;;;;;;;;;10177392;28;20051;-50
2022/09/22 05:29:26;;;;;;;5.85;3.40;;;;;;;;;;10165299;28;20454;-51
2022/09/22 05:34:20;;;;;;;6.03;3.40;;;;;;;;;;10139899;28;20048;-51
2022/09/22 05:39:14;;;;;;;6.93;4.75;;;;;;;;;;10142456;28;20055;-54
2022/09/22 05:44:08;;;;;;;7.85;3.63;;;;;;;;;;10132512;28;20527;-52
2022/09/22 05:49:02;;;;;;;5.63;4.43;;;;;;;;;;10143740;28;20499;-50
2022/09/22 05:53:57;;;;;;;5.88;4.15;;;;;;;;;;10120969;28;20052;-51
2022/09/22 05:58:50;;;;;;;7.50;3.95;;;;;;;;;;10134625;28;20679;-52
2022/09/22 06:03:44;;;;;;;4.18;3.75;;;;;;;;;;10119440;28;20057;-52
2022/09/22 06:08:38;;;;;;;6.88;3.65;;;;;;;;;;10127180;28;20055;-52
2022/09/22 06:13:31;;;;;;;4.55;3.40;;;;;;;;;;10129933;28;20392;-49
2022/09/22 06:18:25;;;;;;;4.40;3.97;;;;;;;;;;10123657;28;20056;-52
2022/09/22 06:23:19;;;;;;;6.00;4.20;;;;;;;;;;10130018;28;20563;-52
2022/09/22 06:28:14;;;;;;;5.35;3.78;;;;;;;;;;10156404;28;20632;-50
2022/09/22 06:33:10;;;;;;;7.03;4.13;;;;;;;;;;10165469;28;20122;-50
2022/09/22 06:38:06;;;;;;;6.57;3.95;;;;;;;;;;10175963;28;20056;-52
2022/09/22 06:43:09;;;;;;;7.05;4.43;;;;;;;;;;10178003;28;20055;-52
2022/09/22 06:48:03;;;;;;;7.57;4.25;;;;;;;;;;10175699;28;20067;-53
2022/09/22 06:53:03;;;;;;;;;;;;;;;;;;10172580;28;20521;-52
2022/09/22 06:57:58;;;;;;;11.88;4.18;;;;;;;;;;10168493;28;20287;-50
2022/09/22 07:02:51;;;;;;;4.95;3.95;;;;;;;;;;10172994;28;20048;-49
2022/09/22 07:07:45;;;;;;;6.80;4.22;;;;;;;;;;10163387;28;20113;-52
2022/09/22 07:12:39;;;;;;;6.93;4.40;;;;;;;;;;10182717;28;20086;-52
2022/09/22 07:17:34;;;;;;;7.70;4.35;;;;;;;;;;10175656;28;20052;-52
2022/09/22 07:22:28;;;;;;;6.25;3.92;;;;;;;;;;10177311;28;20530;-51
2022/09/22 07:27:24;;;;;;;10.40;5.25;;;;;;;;;;10169819;28;20114;-53
2022/09/22 07:32:20;;;;;;;5.65;3.67;;;;;;;;;;10158589;28;20177;-52
2022/09/22 07:37:14;;;;;;;4.85;3.60;;;;;;;;;;10165361;28;20048;-51
2022/09/22 07:42:08;;;;;;;5.72;3.78;;;;;;;;;;10175736;28;20458;-54
2022/09/22 07:47:03;;;;;;;6.90;4.20;;;;;;;;;;10181279;28;20045;-53
2022/09/22 07:51:57;;;;;;;10.88;4.03;;;;;;;;;;10165249;28;20056;-52
2022/09/22 07:56:56;;;;;;;8.10;4.53;;;;;;;;;;10179575;28;20411;-52
2022/09/22 08:01:52;;;;;;;6.75;4.28;;;;;;;;;;10180858;28;20049;-54
2022/09/22 08:06:47;;;;;;;4.32;3.42;;;;;;;;;;10171877;28;20166;-53
2022/09/22 08:11:47;;;;;;;5.00;3.55;;;;;;;;;;10177321;28;20075;-54
2022/09/22 08:16:41;;;;;;;13.98;2.97;;;;;;;;;;10165017;28;20101;-53
2022/09/22 08:21:35;;;;;;;3.97;1.00;;;;;;;;;;10171916;28;20067;-54
2022/09/22 08:26:29;;;;;;;2.30;1.42;;;;;;;;;;10172752;28;20048;-54
2022/09/22 08:31:24;;;;;;;8.57;1.65;;;;;;;;;;10171724;28;20053;-51
2022/09/22 08:36:19;;;;;;;3.08;1.05;;;;;;;;;;10177415;28;20048;-53
2022/09/22 08:41:37;;;;;;;3.65;1.15;;;;;;;;;;10181258;28;20406;-54
2022/09/22 08:46:38;;;;;;;5.55;0.90;;;;;;;;;;10176911;28;20048;-53
2022/09/22 08:51:56;;;;;;;6.85;2.05;;;;;;;;;;10185376;28;20410;-53
2022/09/22 08:57:01;;;;;;;;;;;;;;;;;;10165317;28;20052;-52
2022/09/22 09:02:43;;;;;;;6.47;1.58;;;;;;;;;;10181697;28;19943;-54
2022/09/22 09:08:05;;;;;;;4.70;1.15;;;;;;;;;;10162354;28;20445;-55
2022/09/22 09:13:17;;;;;;;5.60;1.27;;;;;;;;;;10180370;28;20052;-54
2022/09/22 09:18:14;;;;;;;3.75;2.10;;;;;;;;;;10166253;28;20065;-53
2022/09/22 09:23:15;;;;;;;8.10;3.10;;;;;;;;;;10169876;28;20502;-55
2022/09/22 09:28:41;;;;;;;3.03;1.27;;;;;;;;;;10182447;28;20060;-54
2022/09/22 09:33:57;;;;;;;5.13;1.10;;;;;;;;;;10170041;28;20079;-54
2022/09/22 09:38:53;;;;;;;5.63;1.73;;;;;;;;;;10182792;28;20055;-53
2022/09/22 09:43:51;;;;;;;4.57;1.20;;;;;;;;;;10172140;28;20097;-50
2022/09/22 09:48:57;;;;;;;5.55;0.77;;;;;;;;;;10182942;28;20445;-53
2022/09/22 09:53:54;;;;;;;2.25;0.95;;;;;;;;;;10181720;28;20135;-53
2022/09/22 10:04:36;;;;;;;3.45;1.40;;;;;;;;;;10158085;28;20051;-53
2022/09/22 10:09:31;;;;;;;2.45;0.73;;;;;;;;;;10166466;28;20040;-53
2022/09/22 10:14:29;;;;;;;3.25;0.80;;;;;;;;;;10186751;28;20025;-52
2022/09/22 10:19:33;;;;;;;1.30;0.60;;;;;;;;;;10143578;28;20063;-51
2022/09/22 10:24:31;;;;;;;3.90;0.60;;;;;;;;;;10186494;28;20415;-52
2022/09/22 10:29:26;;;;;;;5.47;0.77;;;;;;;;;;10183253;28;20094;-52
2022/09/22 10:34:38;;;;;;;3.97;0.98;;;;;;;;;;10163914;28;20067;-53
2022/09/22 10:39:40;;;;;;;1.73;0.70;;;;;;;;;;10170469;28;20586;-53
2022/09/22 10:44:35;;;;;;;9.23;0.70;;;;;;;;;;10182723;28;20040;-52
2022/09/22 10:49:35;;;;;;;3.20;0.68;;;;;;;;;;10182248;28;20051;-53
2022/09/22 10:54:31;;;;;;;6.85;0.80;;;;;;;;;;10175305;28;20094;-51
2022/09/22 10:59:54;;;;;;;0.73;0.57;;;;;;;;;;10180999;28;20152;-49
2022/09/22 11:05:16;;;;;;;3.80;0.80;;;;;;;;;;10156857;28;20119;-49
2022/09/22 11:15:56;;;;;;;1.20;0.60;;;;;;;;;;10184992;28;20086;-51
2022/09/22 11:21:00;;;;;;;2.80;0.82;;;;;;;;;;10177371;28;20554;-51
2022/09/22 11:26:11;;;;;;;1.23;0.80;;;;;;;;;;10163608;28;20052;-52
2022/09/22 11:31:29;;;;;;;0.82;0.57;;;;;;;;;;10176951;28;20048;-50
2022/09/22 11:36:41;;;;;;;1.05;0.50;;;;;;;;;;10174123;28;20048;-52
2022/09/22 11:41:43;;;;;;;2.97;0.65;;;;;;;;;;10177118;28;20135;-51
2022/09/22 11:46:36;;;;;;;;;;;;;;;;;;10163940;28;20094;-51
2022/09/22 11:51:41;;;;;;;1.70;0.68;;;;;;;;;;10169197;28;20007;-52
2022/09/22 11:56:42;;;;;;;0.70;0.57;;;;;;;;;;10162377;28;20419;-52
2022/09/22 12:01:37;;;;;;;2.35;0.60;;;;;;;;;;10176168;28;20052;-51
2022/09/22 12:06:35;;;;;;;1.98;0.70;;;;;;;;;;10170709;28;20555;-48
2022/09/22 12:11:30;;;;;;;1.30;0.77;;;;;;;;;;10158897;28;20129;-49
2022/09/22 12:16:53;;;;;;;1.27;0.70;;;;;;;;;;10157375;28;20079;-50
2022/09/22 12:21:55;;;;;;;2.92;0.80;;;;;;;;;;10158059;28;20051;-49
2022/09/22 12:26:48;;;;;;;3.30;0.68;;;;;;;;;;10179164;28;20054;-49
2022/09/22 12:31:47;;;;;;;2.80;0.70;;;;;;;;;;10175110;28;20063;-54
2022/09/22 12:36:45;;;;;;;2.85;0.68;;;;;;;;;;10179919;28;20472;-56
2022/09/22 12:41:58;;;;;;;2.28;0.70;;;;;;;;;;10176628;28;20108;-53
2022/09/22 12:46:57;;;;;;;2.60;0.60;;;;;;;;;;10177864;28;20400;-52
2022/09/22 12:51:53;;;;;;;0.65;0.60;;;;;;;;;;10157301;28;20086;-58
2022/09/22 12:56:52;;;;;;;0.80;0.80;;;;;;;;;;10177169;28;20044;-65
2022/09/22 13:01:44;;;;;;;2.55;0.63;;;;;;;;;;10185164;28;20048;-65
2022/09/22 13:06:37;;;;;;;1.92;1.30;;;;;;;;;;10188405;28;20051;-66
2022/09/22 13:12:08;;;;;;;6.03;0.70;;;;;;;;;;10182655;28;20808;-65
2022/09/22 13:17:40;;;;;;;0.52;0.52;;;;;;;;;;10183965;28;20135;-65
2022/09/22 13:22:35;;;;;;;1.58;1.00;;;;;;;;;;10174782;28;20495;-64
2022/09/22 13:27:29;;;;;;;2.45;1.02;;;;;;;;;;10175571;28;20048;-64
2022/09/22 13:32:26;;;;;;;3.20;0.80;;;;;;;;;;10145626;28;20052;-63
2022/09/22 13:37:22;;;;;;;;;;;;;;;;;;10145494;28;20053;-64
2022/09/22 13:42:41;;;;;;;1.75;0.93;;;;;;;;;;10147358;28;19926;-64
2022/09/22 13:47:38;;;;;;;1.65;0.60;;;;;;;;;;10143915;28;20563;-63
2022/09/22 13:52:34;;;;;;;4.78;1.70;;;;;;;;;;10147406;28;20044;-63
2022/09/22 13:57:29;;;;;;;2.20;1.05;;;;;;;;;;10148372;28;20059;-63
2022/09/22 14:02:23;;;;;;;5.32;1.13;;;;;;;;;;10149719;28;20499;-63
2022/09/22 14:07:24;;;;;;;1.40;1.00;;;;;;;;;;10147527;28;20041;-63
2022/09/22 14:12:18;;;;;;;0.98;0.75;;;;;;;;;;10123754;28;20052;-63
2022/09/22 14:17:24;;;;;;;1.83;0.80;;;;;;;;;;10130222;28;20049;-63
2022/09/22 14:23:04;;;;;;;3.72;0.73;;;;;;;;;;10147742;28;20461;-63
2022/09/22 14:27:59;;;;;;;0.85;0.65;;;;;;;;;;10145020;28;20458;-67
2022/09/22 14:32:58;;;;;;;2.00;0.90;;;;;;;;;;10140098;28;20075;-67
2022/09/22 14:37:53;;;;;;;3.20;0.65;;;;;;;;;;10138715;28;20044;-67
2022/09/22 14:43:04;;;;;;;6.18;0.68;;;;;;;;;;10134697;28;20055;-67
2022/09/22 14:48:30;;;;;;;0.80;0.80;;;;;;;;;;10130404;28;20466;-68
2022/09/22 14:53:25;;;;;;;1.33;0.90;;;;;;;;;;10103895;28;20059;-67
2022/09/22 14:58:23;;;;;;;4.43;0.88;;;;;;;;;;10133963;28;20041;-69
2022/09/22 15:03:23;;;;;;;1.85;0.85;;;;;;;;;;10139929;28;20415;-69
2022/09/22 15:08:30;;;;;;;4.28;1.00;;;;;;;;;;10118803;28;20044;-69
2022/09/22 15:13:43;;;;;;;1.85;0.80;;;;;;;;;;10127613;28;20135;-70
2022/09/22 15:18:37;;;;;;;1.20;0.80;;;;;;;;;;10132298;28;20534;-72
2022/09/22 15:23:40;;;;;;;4.78;1.10;;;;;;;;;;10125772;28;20059;-68
2022/09/22 15:28:36;;;;;;;2.70;0.77;;;;;;;;;;10125936;28;20060;-69
2022/09/22 15:33:30;;;;;;;1.40;0.90;;;;;;;;;;10173363;28;20053;-69
2022/09/22 15:38:26;;;;;;;1.13;0.80;;;;;;;;;;10164248;28;20509;-67
2022/09/22 15:43:22;;;;;;;1.42;0.80;;;;;;;;;;10174034;28;20052;-73
2022/09/22 15:48:29;;;;;;;1.98;0.80;;;;;;;;;;10173637;28;20056;-77
2022/09/22 15:53:23;;;;;;;1.35;0.85;;;;;;;;;;10170490;28;20569;-70
2022/09/22 15:58:17;;;;;;;1.67;0.80;;;;;;;;;;10175613;28;20070;-69
2022/09/22 16:03:22;;;;;;;0.70;0.70;;;;;;;;;;10164806;28;20051;-76
2022/09/22 16:08:19;;;;;;;2.13;1.10;;;;;;;;;;10177980;28;20554;-70
2022/09/22 16:13:13;;;;;;;4.95;1.35;;;;;;;;;;10165526;28;20079;-74
2022/09/22 16:18:07;;;;;;;1.67;1.00;;;;;;;;;;10184676;28;20044;-70
2022/09/22 16:23:03;;;;;;;2.25;1.10;;;;;;;;;;10181868;28;20115;-71
2022/09/22 16:27:57;;;;;;;1.45;0.90;;;;;;;;;;10179213;28;20052;-67
2022/09/22 16:32:52;;;;;;;4.05;1.20;;;;;;;;;;10140776;28;20057;-69
2022/09/22 16:37:47;;;;;;;13.35;1.55;;;;;;;;;;10133953;28;20575;-67
2022/09/22 16:42:42;;;;;;;1.25;1.10;;;;;;;;;;10134356;28;20058;-69
2022/09/22 16:47:39;;;;;;;;;;;;;;;;;;10151961;28;20044;-72
2022/09/22 16:52:36;;;;;;;1.92;0.90;;;;;;;;;;10150992;28;19924;-73
2022/09/22 16:57:30;;;;;;;5.05;1.20;;;;;;;;;;10131440;28;20056;-73
2022/09/22 17:02:25;;;;;;;1.42;1.02;;;;;;;;;;10139298;28;21244;-73
2022/09/22 17:07:19;;;;;;;1.52;1.10;;;;;;;;;;10128940;28;20535;-74
2022/09/22 17:12:13;;;;;;;4.75;1.10;;;;;;;;;;10132653;28;20095;-75
2022/09/22 17:17:07;;;;;;;1.65;1.17;;;;;;;;;;10131063;28;20056;-73
2022/09/22 17:22:01;;;;;;;2.00;1.08;;;;;;;;;;10116248;28;20057;-74
2022/09/22 17:26:56;;;;;;;3.83;1.65;;;;;;;;;;10136038;28;20163;-73
2022/09/22 17:31:56;;;;;;;1.45;1.15;;;;;;;;;;10169762;28;20052;-71
2022/09/22 17:36:51;;;;;;;2.05;1.15;;;;;;;;;;10173373;28;20056;-73
2022/09/22 17:41:45;;;;;;;3.65;1.50;;;;;;;;;;10175607;28;20090;-72
2022/09/22 17:57:04;;;;;;;2.42;1.50;;;;;;;;;;10171427;28;20082;-68
2022/09/22 18:01:58;;;;;;;5.75;1.95;;;;;;;;;;10178238;28;20044;-72
2022/09/22 18:06:51;;;;;;;6.85;1.73;;;;;;;;;;10165300;28;20074;-72
2022/09/22 18:11:46;;;;;;;2.33;1.75;;;;;;;;;;10168893;28;20707;-63
2022/09/22 18:16:40;;;;;;;3.83;1.85;;;;;;;;;;10173336;28;20048;-64
2022/09/22 18:21:38;;;;;;;3.92;2.10;;;;;;;;;;10174858;28;20102;-67
2022/09/22 18:26:36;;;;;;;2.50;1.65;;;;;;;;;;10170695;28;20119;-67
2022/09/22 18:31:30;;;;;;;9.00;1.95;;;;;;;;;;10171022;28;20129;-69
2022/09/22 18:36:27;;;;;;;6.45;2.15;;;;;;;;;;10172546;28;20044;-63
2022/09/22 18:41:24;;;;;;;3.83;2.20;;;;;;;;;;10158762;28;20064;-63
2022/09/22 18:46:19;;;;;;;5.25;2.10;;;;;;;;;;10165116;28;20051;-63
2022/09/22 18:51:14;;;;;;;9.00;2.28;;;;;;;;;;10165527;28;20044;-62
2022/09/22 18:56:16;;;;;;;2.90;2.58;;;;;;;;;;10169945;28;20044;-62
2022/09/22 19:01:12;;;;;;;4.25;2.20;;;;;;;;;;10170153;28;20059;-61
2022/09/22 19:06:07;;;;;;;11.45;2.50;;;;;;;;;;10162320;28;20044;-61
2022/09/22 19:11:01;;;;;;;8.50;2.63;;;;;;;;;;10168877;28;20097;-60
2022/09/22 19:15:55;;;;;;;2.38;2.00;;;;;;;;;;10162581;28;20051;-63
2022/09/22 19:20:50;;;;;;;8.20;3.90;;;;;;;;;;10168534;28;20101;-62
2022/09/22 19:25:44;;;;;;;9.90;4.43;;;;;;;;;;10177312;28;20139;-61
2022/09/22 19:30:39;;;;;;;8.82;2.40;;;;;;;;;;10182582;28;20048;-61
2022/09/22 19:35:34;;;;;;;4.53;2.67;;;;;;;;;;10171288;28;20398;-62
2022/09/22 19:40:32;;;;;;;5.35;3.17;;;;;;;;;;10172912;28;20060;-61
2022/09/22 19:45:26;;;;;;;6.57;2.58;;;;;;;;;;10177223;28;20505;-61
2022/09/22 19:50:20;;;;;;;6.28;2.50;;;;;;;;;;10171417;28;20143;-61
2022/09/22 19:55:14;;;;;;;10.07;2.38;;;;;;;;;;10169235;28;20056;-64
2022/09/22 20:00:24;;;;;;;5.53;2.63;;;;;;;;;;10165342;28;20048;-62
2022/09/22 20:05:20;;;;;;;14.88;3.95;;;;;;;;;;10175195;28;20046;-66
2022/09/22 20:10:16;;;;;;;12.55;4.90;;;;;;;;;;10166811;28;20510;-65
2022/09/22 20:15:13;;;;;;;8.45;7.38;;;;;;;;;;10170706;28;20048;-66
2022/09/22 20:20:09;;;;;;;11.25;7.70;;;;;;;;;;10170513;28;20048;-65
2022/09/22 20:25:03;;;;;;;15.10;7.85;;;;;;;;;;10166801;28;20060;-65
2022/09/22 20:29:57;;;;;;;16.10;7.93;;;;;;;;;;10171696;28;20044;-65
2022/09/22 20:34:53;;;;;;;16.48;8.75;;;;;;;;;;10169561;28;20091;-65
2022/09/22 20:39:46;;;;;;;12.48;8.75;;;;;;;;;;10177031;28;20511;-65
2022/09/22 20:44:41;;;;;;;12.40;8.80;;;;;;;;;;10174840;28;20461;-65
2022/09/22 20:49:34;;;;;;;17.00;8.77;;;;;;;;;;10182850;28;20052;-63
2022/09/22 20:54:28;;;;;;;12.48;7.50;;;;;;;;;;10179309;28;20168;-63
2022/09/22 20:59:21;;;;;;;7.57;6.80;;;;;;;;;;10179654;28;20144;-63
2022/09/22 21:04:15;;;;;;;15.00;6.75;;;;;;;;;;10173350;28;20059;-62
2022/09/22 21:14:21;;;;;;;10.73;5.80;;;;;;;;;;10173757;28;20446;-62
2022/09/22 21:19:15;;;;;;;9.55;5.22;;;;;;;;;;10152494;28;20079;-62
2022/09/22 21:24:09;;;;;;;8.10;5.03;;;;;;;;;;10177805;28;20548;-62
2022/09/22 21:29:03;;;;;;;6.45;4.38;;;;;;;;;;10161060;28;20070;-62
2022/09/22 21:33:58;;;;;;;12.60;3.70;;;;;;;;;;10150309;28;20055;-63
2022/09/22 21:38:56;;;;;;;4.50;3.05;;;;;;;;;;10149875;28;20045;-63
2022/09/22 21:43:51;;;;;;;6.35;3.35;;;;;;;;;;10162229;28;20052;-63
2022/09/22 21:48:44;;;;;;;6.68;3.22;;;;;;;;;;10157531;28;20052;-62
2022/09/22 21:53:39;;;;;;;11.23;3.40;;;;;;;;;;10157175;28;20549;-63
2022/09/22 21:58:35;;;;;;;4.85;2.97;;;;;;;;;;10164012;28;20044;-63
2022/09/22 22:03:32;;;;;;;7.03;3.88;;;;;;;;;;10153608;28;20053;-63
2022/09/22 22:08:26;;;;;;;7.07;3.65;;;;;;;;;;10157011;28;20526;-63
2022/09/22 22:13:20;;;;;;;4.85;3.03;;;;;;;;;;10159612;28;20127;-62
2022/09/22 22:18:14;;;;;;;5.88;2.70;;;;;;;;;;10163837;28;20043;-62
2022/09/22 22:23:10;;;;;;;8.77;3.08;;;;;;;;;;10146068;28;20639;-61
2022/09/22 22:28:03;;;;;;;3.80;2.60;;;;;;;;;;10167085;28;20048;-61
2022/09/22 22:32:57;;;;;;;6.40;2.83;;;;;;;;;;10184745;28;20048;-61
2022/09/22 22:37:51;;;;;;;5.22;2.80;;;;;;;;;;10175413;28;20134;-62
2022/09/22 22:42:46;;;;;;;6.45;3.28;;;;;;;;;;10160423;28;20059;-62
2022/09/22 22:47:40;;;;;;;7.60;3.60;;;;;;;;;;10174964;28;20487;-61
2022/09/22 22:52:38;;;;;;;11.00;4.03;;;;;;;;;;10177637;28;20127;-62
2022/09/22 22:57:32;;;;;;;8.20;4.30;;;;;;;;;;10181393;28;20056;-61
2022/09/22 23:02:29;;;;;;;4.70;3.50;;;;;;;;;;10162227;28;20363;-61
2022/09/22 23:07:23;;;;;;;5.57;3.45;;;;;;;;;;10174034;28;20072;-61
2022/09/22 23:12:17;;;;;;;5.05;4.03;;;;;;;;;;10183285;28;20043;-61
2022/09/22 23:17:11;;;;;;;5.15;4.28;;;;;;;;;;10184444;28;20110;-60
2022/09/22 23:22:04;;;;;;;5.47;3.75;;;;;;;;;;10186903;28;20513;-60
2022/09/22 23:26:58;;;;;;;5.45;3.20;;;;;;;;;;10174166;28;20056;-60
2022/09/22 23:31:53;;;;;;;4.20;3.30;;;;;;;;;;10187951;28;20512;-60
2022/09/22 23:36:47;;;;;;;4.13;2.97;;;;;;;;;;10170422;28;20040;-60
2022/09/22 23:41:41;;;;;;;3.22;2.92;;;;;;;;;;10163331;28;20060;-60
2022/09/22 23:46:37;;;;;;;5.55;3.03;;;;;;;;;;10178039;28;20036;-59
2022/09/22 23:51:31;;;;;;;6.53;3.25;;;;;;;;;;10163646;28;20122;-60
2022/09/22 23:56:25;;;;;;;4.25;3.20;;;;;;;;;;10184273;28;20457;-60
